createdAt,value
2024-04-18T00:00:22.968Z,5.40
2024-04-18T00:02:50.680Z,5.30
2024-04-18T00:05:20.806Z,5.30
2024-04-18T00:07:48.223Z,5.30
2024-04-18T00:10:18.735Z,5.20
2024-04-18T00:12:45.741Z,5.20
2024-04-18T00:15:17.683Z,5.20
2024-04-18T00:17:47.468Z,5.10
2024-04-18T00:20:17.005Z,5.10
2024-04-18T00:22:44.308Z,5.00
2024-04-18T00:25:13.895Z,4.90
2024-04-18T00:27:40.858Z,4.90
2024-04-18T00:30:11.047Z,4.80
2024-04-18T00:32:38.013Z,4.80
2024-04-18T00:35:10.770Z,4.70
2024-04-18T00:37:38.201Z,4.60
2024-04-18T00:40:08.647Z,4.60
2024-04-18T00:42:35.660Z,4.50
2024-04-18T00:45:05.259Z,4.60
2024-04-18T00:47:32.902Z,4.50
2024-04-18T00:50:02.659Z,4.40
2024-04-18T00:52:32.757Z,4.40
2024-04-18T00:55:04.385Z,4.20
2024-04-18T00:57:33.475Z,4.20
2024-04-18T01:00:03.644Z,4.20
2024-04-18T01:02:31.356Z,4.10
2024-04-18T01:05:01.815Z,4.10
2024-04-18T01:07:31.437Z,4.00
2024-04-18T01:10:01.043Z,4.00
2024-04-18T01:12:28.011Z,3.90
2024-04-18T01:14:57.916Z,3.90
2024-04-18T01:17:24.998Z,3.90
2024-04-18T01:19:54.600Z,3.80
2024-04-18T01:22:21.990Z,3.70
2024-04-18T01:24:54.289Z,3.80
2024-04-18T01:27:23.907Z,3.70
2024-04-18T01:29:53.443Z,3.60
2024-04-18T01:32:20.408Z,3.50
2024-04-18T01:34:49.967Z,3.50
2024-04-18T01:37:16.926Z,3.50
2024-04-18T01:39:48.146Z,3.40
2024-04-18T01:42:15.159Z,3.40
2024-04-18T01:44:48.625Z,3.50
2024-04-18T01:47:15.607Z,3.60
2024-04-18T01:49:45.120Z,3.50
2024-04-18T01:52:12.113Z,3.40
2024-04-18T01:54:41.727Z,3.40
2024-04-18T01:57:08.767Z,3.40
2024-04-18T01:59:38.294Z,3.40
2024-04-18T02:02:07.875Z,3.40
2024-04-18T02:04:37.457Z,3.40
2024-04-18T02:07:04.665Z,3.50
2024-04-18T02:09:34.276Z,3.40
2024-04-18T02:12:01.253Z,3.30
2024-04-18T02:14:30.850Z,3.20
2024-04-18T02:16:57.827Z,3.20
2024-04-18T02:19:30.207Z,3.20
2024-04-18T02:21:57.233Z,3.20
2024-04-18T02:24:26.770Z,3.30
2024-04-18T02:26:54.552Z,3.30
2024-04-18T02:29:24.095Z,3.20
2024-04-18T02:31:51.028Z,3.10
2024-04-18T02:34:20.554Z,3.00
2024-04-18T02:36:50.099Z,3.00
2024-04-18T02:39:19.695Z,3.10
2024-04-18T02:41:46.674Z,3.00
2024-04-18T02:44:16.215Z,3.10
2024-04-18T02:46:45.837Z,3.10
2024-04-18T02:49:12.751Z,3.00
2024-04-18T02:51:42.415Z,3.10
2024-04-18T02:54:12.044Z,3.20
2024-04-18T02:56:41.642Z,3.30
2024-04-18T02:59:08.611Z,3.30
2024-04-18T03:01:38.148Z,3.40
2024-04-18T03:04:05.310Z,3.40
2024-04-18T03:06:34.981Z,3.40
2024-04-18T03:09:02.009Z,3.40
2024-04-18T03:11:34.536Z,3.50
2024-04-18T03:14:01.733Z,3.40
2024-04-18T03:16:31.313Z,3.50
2024-04-18T03:18:58.274Z,3.50
2024-04-18T03:21:27.863Z,3.50
2024-04-18T03:23:54.883Z,3.50
2024-04-18T03:26:24.710Z,3.40
2024-04-18T03:28:55.271Z,3.40
2024-04-18T03:31:24.777Z,3.30
2024-04-18T03:33:51.796Z,3.40
2024-04-18T03:36:21.449Z,3.30
2024-04-18T03:38:50.986Z,3.20
2024-04-18T03:41:20.496Z,3.30
2024-04-18T03:43:50.029Z,3.20
2024-04-18T03:46:23.779Z,3.20
2024-04-18T03:48:53.462Z,3.10
2024-04-18T03:51:20.462Z,3.10
2024-04-18T03:53:50.040Z,3.10
2024-04-18T03:56:17.011Z,3.10
2024-04-18T03:58:46.741Z,3.00
2024-04-18T04:01:14.310Z,2.90
2024-04-18T04:03:46.580Z,2.70
2024-04-18T04:06:13.679Z,2.70
2024-04-18T04:08:43.214Z,2.80
2024-04-18T04:11:10.329Z,2.70
2024-04-18T04:13:39.936Z,2.60
2024-04-18T04:16:07.152Z,2.60
2024-04-18T04:18:36.955Z,2.50
2024-04-18T04:21:08.848Z,2.50
2024-04-18T04:23:39.024Z,2.60
2024-04-18T04:26:06.003Z,2.50
2024-04-18T04:28:35.565Z,2.50
2024-04-18T04:31:02.752Z,2.60
2024-04-18T04:33:34.587Z,2.50
2024-04-18T04:36:01.562Z,2.40
2024-04-18T04:38:33.878Z,2.40
2024-04-18T04:41:00.843Z,2.40
2024-04-18T04:43:30.448Z,2.40
2024-04-18T04:45:57.455Z,2.40
2024-04-18T04:48:27.313Z,2.40
2024-04-18T04:50:55.225Z,2.40
2024-04-18T04:53:24.863Z,2.50
2024-04-18T04:55:54.443Z,2.50
2024-04-18T04:58:24.033Z,2.50
2024-04-18T05:00:51.702Z,2.60
2024-04-18T05:03:21.431Z,2.60
2024-04-18T05:05:48.402Z,2.50
2024-04-18T05:08:18.630Z,2.60
2024-04-18T05:10:46.426Z,2.60
2024-04-18T05:13:19.663Z,2.60
2024-04-18T05:15:46.656Z,2.60
2024-04-18T05:18:16.893Z,2.70
2024-04-18T05:20:43.980Z,2.80
2024-04-18T05:23:13.557Z,2.80
2024-04-18T05:25:40.538Z,2.90
2024-04-18T05:28:20.975Z,2.90
2024-04-18T05:31:03.373Z,3.00
2024-04-18T05:33:34.298Z,3.00
2024-04-18T05:36:01.876Z,3.10
2024-04-18T05:38:31.557Z,3.10
2024-04-18T05:41:01.259Z,3.10
2024-04-18T05:43:33.205Z,3.30
2024-04-18T05:46:07.716Z,3.40
2024-04-18T05:48:37.290Z,3.50
2024-04-18T05:51:06.938Z,3.50
2024-04-18T05:53:36.500Z,3.70
2024-04-18T05:56:06.148Z,3.90
2024-04-18T05:58:36.340Z,4.00
2024-04-18T06:01:08.568Z,4.20
2024-04-18T06:03:38.147Z,4.60
2024-04-18T06:06:07.898Z,4.90
2024-04-18T06:08:37.476Z,5.10
2024-04-18T06:11:07.267Z,5.30
2024-04-18T06:13:40.043Z,5.60
2024-04-18T06:16:12.341Z,5.80
2024-04-18T06:18:41.905Z,6.00
2024-04-18T06:21:11.729Z,6.20
2024-04-18T06:23:41.267Z,6.50
2024-04-18T06:26:10.801Z,6.80
2024-04-18T06:28:40.341Z,7.10
2024-04-18T06:31:12.737Z,7.20
2024-04-18T06:33:44.746Z,7.20
2024-04-18T06:36:14.546Z,7.30
2024-04-18T06:38:44.119Z,7.50
2024-04-18T06:41:13.829Z,7.60
2024-04-18T06:43:43.405Z,7.60
2024-04-18T06:46:15.571Z,7.70
2024-04-18T06:48:45.136Z,7.70
2024-04-18T06:51:14.693Z,7.90
2024-04-18T06:53:44.189Z,8.10
2024-04-18T06:56:14.379Z,8.30
2024-04-18T06:58:43.927Z,8.20
2024-04-18T07:01:16.475Z,8.20
2024-04-18T07:03:46.505Z,8.20
2024-04-18T07:06:16.223Z,8.20
2024-04-18T07:08:45.752Z,8.40
2024-04-18T07:11:15.323Z,8.50
2024-04-18T07:13:44.865Z,8.70
2024-04-18T07:16:17.001Z,9.00
2024-04-18T07:18:46.602Z,9.20
2024-04-18T07:21:18.827Z,9.00
2024-04-18T07:23:48.340Z,9.00
2024-04-18T07:26:18.641Z,9.10
2024-04-18T07:28:48.672Z,8.90
2024-04-18T07:31:20.826Z,8.90
2024-04-18T07:33:52.068Z,9.00
2024-04-18T07:36:22.809Z,9.10
2024-04-18T07:38:52.979Z,8.90
2024-04-18T07:41:22.491Z,9.00
2024-04-18T07:43:51.993Z,9.30
2024-04-18T07:46:29.492Z,9.60
2024-04-18T07:48:59.060Z,9.60
2024-04-18T07:51:29.162Z,9.50
2024-04-18T07:53:59.102Z,9.40
2024-04-18T07:56:36.122Z,9.40
2024-04-18T07:59:08.026Z,9.20
2024-04-18T08:01:45.327Z,9.10
2024-04-18T08:04:34.776Z,9.10
2024-04-18T08:07:07.913Z,9.10
2024-04-18T08:09:42.434Z,8.90
2024-04-18T08:12:24.170Z,8.90
2024-04-18T08:15:01.285Z,9.00
2024-04-18T08:17:37.493Z,8.90
2024-04-18T08:20:08.254Z,9.00
2024-04-18T08:22:38.101Z,8.90
2024-04-18T08:25:08.851Z,8.90
2024-04-18T08:27:39.171Z,8.80
2024-04-18T08:30:09.806Z,8.90
2024-04-18T08:32:42.148Z,9.00
2024-04-18T08:35:17.682Z,9.00
2024-04-18T08:37:47.401Z,9.00
2024-04-18T08:40:17.421Z,9.00
2024-04-18T08:42:47.558Z,9.20
2024-04-18T08:45:14.943Z,9.50
2024-04-18T08:47:50.097Z,9.80
2024-04-18T08:50:20.863Z,10.00
2024-04-18T08:52:50.807Z,10.00
2024-04-18T08:55:18.367Z,10.00
2024-04-18T08:57:52.089Z,9.90
2024-04-18T09:00:21.959Z,10.00
2024-04-18T09:02:54.587Z,10.10
2024-04-18T09:05:24.396Z,10.10
2024-04-18T09:07:54.198Z,10.10
2024-04-18T09:10:24.969Z,10.20
2024-04-18T09:12:56.663Z,10.40
2024-04-18T09:15:27.862Z,10.60
2024-04-18T09:18:08.519Z,10.60
2024-04-18T09:20:39.732Z,10.70
2024-04-18T09:23:09.575Z,10.90
2024-04-18T09:25:41.027Z,11.00
2024-04-18T09:28:11.866Z,11.30
2024-04-18T09:30:39.137Z,11.30
2024-04-18T09:33:13.030Z,11.20
2024-04-18T09:35:46.332Z,11.50
2024-04-18T09:38:17.684Z,11.60
2024-04-18T09:40:55.231Z,11.50
2024-04-18T09:43:28.410Z,11.60
2024-04-18T09:46:05.117Z,11.30
2024-04-18T09:48:38.483Z,11.40
2024-04-18T09:51:10.340Z,11.90
2024-04-18T09:53:41.257Z,12.30
2024-04-18T09:56:11.188Z,12.60
2024-04-18T09:58:41.828Z,12.80
2024-04-18T10:01:13.294Z,13.10
2024-04-18T10:03:46.448Z,13.30
2024-04-18T10:06:19.082Z,13.60
2024-04-18T10:08:53.484Z,13.60
2024-04-18T10:11:25.572Z,13.70
2024-04-18T10:13:55.430Z,13.80
2024-04-18T10:16:24.911Z,13.80
2024-04-18T10:18:57.334Z,13.60
2024-04-18T10:21:37.875Z,13.00
2024-04-18T10:24:21.408Z,12.90
2024-04-18T10:27:02.059Z,13.20
2024-04-18T10:29:31.722Z,13.00
2024-04-18T10:32:01.552Z,12.70
2024-04-18T10:34:34.700Z,12.30
2024-04-18T10:37:09.395Z,12.00
2024-04-18T10:39:41.214Z,11.70
2024-04-18T10:42:12.113Z,11.90
2024-04-18T10:44:41.993Z,11.90
2024-04-18T10:47:12.130Z,11.90
2024-04-18T10:49:44.244Z,12.10
2024-04-18T10:52:13.759Z,12.50
2024-04-18T10:54:43.261Z,12.60
2024-04-18T10:57:13.888Z,12.40
2024-04-18T10:59:44.828Z,12.60
2024-04-18T11:02:15.659Z,12.40
2024-04-18T11:04:47.837Z,12.00
2024-04-18T11:07:17.362Z,11.90
2024-04-18T11:09:46.894Z,11.40
2024-04-18T11:12:17.686Z,11.30
2024-04-18T11:14:48.699Z,11.20
2024-04-18T11:17:18.460Z,11.30
2024-04-18T11:19:50.603Z,11.30
2024-04-18T11:22:20.634Z,11.10
2024-04-18T11:24:50.215Z,10.90
2024-04-18T11:27:19.789Z,11.00
2024-04-18T11:29:54.254Z,11.20
2024-04-18T11:32:24.211Z,11.40
2024-04-18T11:35:00.575Z,11.70
2024-04-18T11:37:40.068Z,11.90
2024-04-18T11:40:10.650Z,12.10
2024-04-18T11:42:40.276Z,12.10
2024-04-18T11:45:10.737Z,12.40
2024-04-18T11:47:41.683Z,12.70
2024-04-18T11:50:13.916Z,13.40
2024-04-18T11:52:43.418Z,13.30
2024-04-18T11:55:12.966Z,13.00
2024-04-18T11:57:42.493Z,12.60
2024-04-18T12:00:12.843Z,12.30
2024-04-18T12:02:42.366Z,12.50
2024-04-18T12:05:14.568Z,12.30
2024-04-18T12:07:44.090Z,12.30
2024-04-18T12:10:13.613Z,12.00
2024-04-18T12:12:43.098Z,12.00
2024-04-18T12:15:11.052Z,11.60
2024-04-18T12:17:40.664Z,11.50
2024-04-18T12:20:11.055Z,11.50
2024-04-18T12:22:43.152Z,11.30
2024-04-18T12:25:12.695Z,11.50
2024-04-18T12:27:42.177Z,11.60
2024-04-18T12:30:12.386Z,11.80
2024-04-18T12:32:42.041Z,11.80
2024-04-18T12:35:11.924Z,11.70
2024-04-18T12:37:44.307Z,11.80
2024-04-18T12:40:15.389Z,12.40
2024-04-18T12:42:42.394Z,12.60
2024-04-18T12:45:12.066Z,12.60
2024-04-18T12:47:41.765Z,13.20
2024-04-18T12:50:11.404Z,13.70
2024-04-18T12:52:41.125Z,14.20
2024-04-18T12:55:15.909Z,14.00
2024-04-18T12:57:46.919Z,14.10
2024-04-18T13:00:17.651Z,14.10
2024-04-18T13:02:47.285Z,13.90
2024-04-18T13:05:16.910Z,13.80
2024-04-18T13:07:46.522Z,14.00
2024-04-18T13:10:18.802Z,14.50
2024-04-18T13:12:48.387Z,14.30
2024-04-18T13:15:21.008Z,14.00
2024-04-18T13:17:50.681Z,13.70
2024-04-18T13:20:23.807Z,13.80
2024-04-18T13:22:56.704Z,13.70
2024-04-18T13:25:29.187Z,14.00
2024-04-18T13:28:02.093Z,13.70
2024-04-18T13:30:31.698Z,13.50
2024-04-18T13:33:02.025Z,13.20
2024-04-18T13:35:43.400Z,13.20
2024-04-18T13:38:24.124Z,12.80
2024-04-18T13:40:57.192Z,13.00
2024-04-18T13:43:26.729Z,13.10
2024-04-18T13:45:59.888Z,13.10
2024-04-18T13:48:34.537Z,12.90
2024-04-18T13:51:05.006Z,12.80
2024-04-18T13:53:34.659Z,12.70
2024-04-18T13:56:07.415Z,12.70
2024-04-18T13:58:37.371Z,12.80
2024-04-18T14:01:07.501Z,13.00
2024-04-18T14:03:37.392Z,12.90
2024-04-18T14:06:11.356Z,12.70
2024-04-18T14:08:42.324Z,12.80
2024-04-18T14:11:14.823Z,13.00
2024-04-18T14:13:46.545Z,13.00
2024-04-18T14:16:32.559Z,13.20
2024-04-18T14:19:02.903Z,13.50
2024-04-18T14:21:34.419Z,13.20
2024-04-18T14:24:04.861Z,13.10
2024-04-18T14:26:37.802Z,12.60
2024-04-18T14:29:07.352Z,12.60
2024-04-18T14:31:37.573Z,12.30
2024-04-18T14:34:07.927Z,12.30
2024-04-18T14:36:38.072Z,12.30
2024-04-18T14:39:10.807Z,12.10
2024-04-18T14:41:46.971Z,12.30
2024-04-18T14:44:16.669Z,12.50
2024-04-18T14:46:46.303Z,12.10
2024-04-18T14:49:17.468Z,12.30
2024-04-18T14:51:47.381Z,12.50
2024-04-18T14:54:17.199Z,12.70
2024-04-18T14:56:49.389Z,13.00
2024-04-18T14:59:18.965Z,12.90
2024-04-18T15:01:48.511Z,12.70
2024-04-18T15:04:19.616Z,12.60
2024-04-18T15:06:51.420Z,12.60
2024-04-18T15:09:21.021Z,12.80
2024-04-18T15:11:55.658Z,12.70
2024-04-18T15:14:25.245Z,12.40
2024-04-18T15:16:54.775Z,12.40
2024-04-18T15:19:24.256Z,12.40
2024-04-18T15:21:53.858Z,12.50
2024-04-18T15:24:24.054Z,12.10
2024-04-18T15:26:56.479Z,12.20
2024-04-18T15:29:26.074Z,12.20
2024-04-18T15:31:55.607Z,12.10
2024-04-18T15:34:25.207Z,12.30
2024-04-18T15:36:54.819Z,12.40
2024-04-18T15:39:24.398Z,12.20
2024-04-18T15:41:56.558Z,12.10
2024-04-18T15:44:26.554Z,12.20
2024-04-18T15:46:56.075Z,12.00
2024-04-18T15:49:25.618Z,11.90
2024-04-18T15:51:55.153Z,11.80
2024-04-18T15:54:24.750Z,11.70
2024-04-18T15:56:56.914Z,11.50
2024-04-18T15:59:26.423Z,11.60
2024-04-18T16:01:55.989Z,11.40
2024-04-18T16:04:23.169Z,11.50
2024-04-18T16:06:52.745Z,11.50
2024-04-18T16:09:22.299Z,11.60
2024-04-18T16:11:51.934Z,11.60
2024-04-18T16:14:24.067Z,11.60
2024-04-18T16:16:53.698Z,11.70
2024-04-18T16:19:25.211Z,11.40
2024-04-18T16:21:55.094Z,11.40
2024-04-18T16:24:24.704Z,11.20
2024-04-18T16:26:54.248Z,11.10
2024-04-18T16:29:26.490Z,10.80
2024-04-18T16:31:56.314Z,10.80
2024-04-18T16:34:25.879Z,10.60
2024-04-18T16:37:08.595Z,10.70
2024-04-18T16:39:41.825Z,10.70
2024-04-18T16:42:11.436Z,10.50
2024-04-18T16:44:43.560Z,10.40
2024-04-18T16:47:13.160Z,10.40
2024-04-18T16:49:43.194Z,10.30
2024-04-18T16:52:12.851Z,10.40
2024-04-18T16:54:42.975Z,10.30
2024-04-18T16:57:13.520Z,10.30
2024-04-18T16:59:45.857Z,9.90
2024-04-18T17:02:15.392Z,10.00
2024-04-18T17:04:44.988Z,10.00
2024-04-18T17:07:14.527Z,10.00
2024-04-18T17:09:41.541Z,9.90
2024-04-18T17:12:11.552Z,9.90
2024-04-18T17:14:41.158Z,9.90
2024-04-18T17:17:13.264Z,9.70
2024-04-18T17:19:42.922Z,9.70
2024-04-18T17:22:12.438Z,9.70
2024-04-18T17:25:10.402Z,9.40
2024-04-18T17:27:40.902Z,9.40
2024-04-18T17:30:11.310Z,9.40
2024-04-18T17:32:44.529Z,9.40
2024-04-18T17:35:14.126Z,9.30
2024-04-18T17:37:43.649Z,9.20
2024-04-18T17:40:14.098Z,9.30
2024-04-18T17:42:44.435Z,9.30
2024-04-18T17:45:14.056Z,9.30
2024-04-18T17:47:48.398Z,9.30
2024-04-18T17:50:18.254Z,9.40
2024-04-18T17:52:56.811Z,9.40
2024-04-18T17:55:26.443Z,9.40
2024-04-18T17:57:55.946Z,9.40
2024-04-18T18:00:25.527Z,9.20
2024-04-18T18:02:57.848Z,9.20
2024-04-18T18:05:27.496Z,9.10
2024-04-18T18:07:56.966Z,9.20
2024-04-18T18:10:23.935Z,9.10
2024-04-18T18:12:53.534Z,9.20
2024-04-18T18:15:20.580Z,9.20
2024-04-18T18:17:50.154Z,9.00
2024-04-18T18:20:22.456Z,9.10
2024-04-18T18:22:51.971Z,9.00
2024-04-18T18:25:21.512Z,9.00
2024-04-18T18:27:51.756Z,8.90
2024-04-18T18:30:18.804Z,8.80
2024-04-18T18:32:48.444Z,8.70
2024-04-18T18:35:15.766Z,8.80
2024-04-18T18:37:49.454Z,8.80
2024-04-18T18:40:19.233Z,8.80
2024-04-18T18:42:46.244Z,8.80
2024-04-18T18:45:15.893Z,8.80
2024-04-18T18:47:42.985Z,8.70
2024-04-18T18:50:12.573Z,8.70
2024-04-18T18:52:40.200Z,8.70
2024-04-18T18:55:12.616Z,8.60
2024-04-18T18:57:47.414Z,8.50
2024-04-18T19:00:15.144Z,8.40
2024-04-18T19:02:44.845Z,8.40
2024-04-18T19:05:11.825Z,8.40
2024-04-18T19:07:41.355Z,8.40
2024-04-18T19:10:10.916Z,8.40
2024-04-18T19:12:40.585Z,8.40
2024-04-18T19:15:08.114Z,8.30
2024-04-18T19:17:40.260Z,8.40
2024-04-18T19:20:07.718Z,8.30
2024-04-18T19:22:37.282Z,8.20
2024-04-18T19:25:04.783Z,8.20
2024-04-18T19:27:37.007Z,8.20
2024-04-18T19:30:04.649Z,8.10
2024-04-18T19:32:34.215Z,8.00
2024-04-18T19:35:01.208Z,8.10
2024-04-18T19:37:30.854Z,8.00
2024-04-18T19:39:57.877Z,8.00
2024-04-18T19:42:29.713Z,7.90
2024-04-18T19:45:02.390Z,7.80
2024-04-18T19:47:31.970Z,7.80
2024-04-18T19:50:01.231Z,7.80
2024-04-18T19:52:30.799Z,7.80
2024-04-18T19:54:57.716Z,7.90
2024-04-18T19:57:27.292Z,7.90
2024-04-18T19:59:54.241Z,8.00
2024-04-18T20:02:26.406Z,8.00
2024-04-18T20:04:53.507Z,8.00
2024-04-18T20:07:23.979Z,7.90
2024-04-18T20:09:50.949Z,7.90
2024-04-18T20:12:20.508Z,8.00
2024-04-18T20:14:47.521Z,7.90
2024-04-18T20:17:17.331Z,7.90
2024-04-18T20:19:46.834Z,8.00
2024-04-18T20:22:16.357Z,7.90
2024-04-18T20:24:43.397Z,7.90
2024-04-18T20:27:13.202Z,7.90
2024-04-18T20:29:40.177Z,7.90
2024-04-18T20:32:09.990Z,7.80
2024-04-18T20:34:36.971Z,7.90
2024-04-18T20:37:09.250Z,7.80
2024-04-18T20:39:36.244Z,7.80
2024-04-18T20:42:05.959Z,7.90
2024-04-18T20:44:33.094Z,7.80
2024-04-18T20:47:02.589Z,7.90
2024-04-18T20:49:29.496Z,7.90
2024-04-18T20:51:59.199Z,8.00
2024-04-18T20:54:29.067Z,7.90
2024-04-18T20:56:58.662Z,7.90
2024-04-18T20:59:25.646Z,7.80
2024-04-18T21:01:55.495Z,7.80
2024-04-18T21:04:22.607Z,7.70
2024-04-18T21:06:52.275Z,7.70
2024-04-18T21:09:19.304Z,7.60
2024-04-18T21:11:51.535Z,7.70
2024-04-18T21:14:18.603Z,7.80
2024-04-18T21:16:48.437Z,7.90
2024-04-18T21:19:18.406Z,7.90
2024-04-18T21:21:50.643Z,7.90
2024-04-18T21:24:17.804Z,7.90
2024-04-18T21:26:47.433Z,7.90
2024-04-18T21:29:17.315Z,7.90
2024-04-18T21:31:47.280Z,7.80
2024-04-18T21:34:14.534Z,7.80
2024-04-18T21:36:44.311Z,7.80
2024-04-18T21:39:11.466Z,7.80
2024-04-18T21:41:42.034Z,7.70
2024-04-18T21:44:10.457Z,7.70
2024-04-18T21:46:42.855Z,7.70
2024-04-18T21:49:09.965Z,7.70
2024-04-18T21:51:39.718Z,7.50
2024-04-18T21:54:06.823Z,7.50
2024-04-18T21:56:36.460Z,7.50
2024-04-18T21:59:03.513Z,7.40
2024-04-18T22:01:33.157Z,7.40
2024-04-18T22:04:03.001Z,7.40
2024-04-18T22:06:33.475Z,7.50
2024-04-18T22:09:00.557Z,7.50
2024-04-18T22:11:30.250Z,7.40
2024-04-18T22:13:57.525Z,7.50
2024-04-18T22:16:27.204Z,7.50
2024-04-18T22:18:54.425Z,7.40
2024-04-18T22:21:26.762Z,7.50
2024-04-18T22:23:54.110Z,7.50
2024-04-18T22:26:23.719Z,7.40
2024-04-18T22:28:50.742Z,7.40
2024-04-18T22:31:20.342Z,7.40
2024-04-18T22:33:47.852Z,7.40
2024-04-18T22:36:17.665Z,7.40
2024-04-18T22:38:47.316Z,7.40
2024-04-18T22:41:16.942Z,7.40
2024-04-18T22:43:44.203Z,7.50
2024-04-18T22:46:13.854Z,7.40
2024-04-18T22:48:41.235Z,7.50
2024-04-18T22:51:11.143Z,7.40
2024-04-18T22:53:38.194Z,7.50
2024-04-18T22:56:10.664Z,7.50
2024-04-18T22:58:37.723Z,7.40
2024-04-18T23:01:07.803Z,7.40
2024-04-18T23:03:35.154Z,7.40
2024-04-18T23:06:04.857Z,7.30
2024-04-18T23:08:31.878Z,7.30
2024-04-18T23:11:01.529Z,7.40
2024-04-18T23:13:31.365Z,7.40
2024-04-18T23:16:00.998Z,7.30
2024-04-18T23:18:28.438Z,7.30
2024-04-18T23:20:58.238Z,7.30
2024-04-18T23:23:25.253Z,7.40
2024-04-18T23:25:54.840Z,7.40
2024-04-18T23:28:22.111Z,7.50
2024-04-18T23:30:54.748Z,7.30
2024-04-18T23:33:22.324Z,7.30
2024-04-18T23:35:52.100Z,7.30
2024-04-18T23:38:19.142Z,7.20
2024-04-18T23:40:48.833Z,7.10
2024-04-18T23:43:15.881Z,7.10
2024-04-18T23:45:45.571Z,7.20
2024-04-18T23:48:15.460Z,7.20
2024-04-18T23:50:45.182Z,7.10
2024-04-18T23:53:12.278Z,7.10
2024-04-18T23:55:43.568Z,7.10
2024-04-18T23:58:10.668Z,7.00
